sensor_id;sensor_type;location;lat;lon;timestamp;P1;durP1;ratioP1;P2;durP2;ratioP2
5543;SDS011;2795;47.652;13.128;2023-12-07T00:02:02;29.10;;;10.40;;
5543;SDS011;2795;47.652;13.128;2023-12-07T00:04:29;28.17;;;10.70;;
5543;SDS011;2795;47.652;13.128;2023-12-07T00:06:56;32.30;;;10.83;;
5543;SDS011;2795;47.652;13.128;2023-12-07T00:09:23;32.03;;;10.53;;
5543;SDS011;2795;47.652;13.128;2023-12-07T00:11:50;31.00;;;10.80;;
5543;SDS011;2795;47.652;13.128;2023-12-07T00:14:17;32.03;;;9.50;;
5543;SDS011;2795;47.652;13.128;2023-12-07T00:16:43;28.13;;;10.77;;
5543;SDS011;2795;47.652;13.128;2023-12-07T00:19:10;24.80;;;9.63;;
5543;SDS011;2795;47.652;13.128;2023-12-07T00:21:37;27.40;;;9.97;;
5543;SDS011;2795;47.652;13.128;2023-12-07T00:24:04;28.37;;;10.27;;
5543;SDS011;2795;47.652;13.128;2023-12-07T00:26:31;27.43;;;11.37;;
5543;SDS011;2795;47.652;13.128;2023-12-07T00:28:57;29.70;;;10.33;;
5543;SDS011;2795;47.652;13.128;2023-12-07T00:31:24;35.63;;;12.30;;
5543;SDS011;2795;47.652;13.128;2023-12-07T00:33:51;33.00;;;12.47;;
5543;SDS011;2795;47.652;13.128;2023-12-07T00:36:17;32.57;;;12.17;;
5543;SDS011;2795;47.652;13.128;2023-12-07T00:38:44;32.07;;;11.13;;
5543;SDS011;2795;47.652;13.128;2023-12-07T00:41:10;36.73;;;12.83;;
5543;SDS011;2795;47.652;13.128;2023-12-07T00:43:37;43.60;;;15.33;;
5543;SDS011;2795;47.652;13.128;2023-12-07T00:46:06;33.37;;;11.33;;
5543;SDS011;2795;47.652;13.128;2023-12-07T00:48:33;27.73;;;9.97;;
5543;SDS011;2795;47.652;13.128;2023-12-07T00:51:00;28.33;;;10.07;;
5543;SDS011;2795;47.652;13.128;2023-12-07T00:53:27;32.57;;;10.67;;
5543;SDS011;2795;47.652;13.128;2023-12-07T00:55:53;31.33;;;11.23;;
5543;SDS011;2795;47.652;13.128;2023-12-07T00:58:20;26.70;;;10.27;;
5543;SDS011;2795;47.652;13.128;2023-12-07T01:00:47;33.60;;;11.60;;
5543;SDS011;2795;47.652;13.128;2023-12-07T01:03:13;37.13;;;12.43;;
5543;SDS011;2795;47.652;13.128;2023-12-07T01:05:40;33.13;;;11.10;;
5543;SDS011;2795;47.652;13.128;2023-12-07T01:08:07;30.23;;;10.97;;
5543;SDS011;2795;47.652;13.128;2023-12-07T01:10:34;29.67;;;11.60;;
5543;SDS011;2795;47.652;13.128;2023-12-07T01:13:00;30.10;;;11.60;;
5543;SDS011;2795;47.652;13.128;2023-12-07T01:15:27;28.70;;;11.10;;
5543;SDS011;2795;47.652;13.128;2023-12-07T01:17:54;28.87;;;11.30;;
5543;SDS011;2795;47.652;13.128;2023-12-07T01:20:20;35.27;;;13.50;;
5543;SDS011;2795;47.652;13.128;2023-12-07T01:22:47;34.33;;;13.00;;
5543;SDS011;2795;47.652;13.128;2023-12-07T01:25:14;32.70;;;11.90;;
5543;SDS011;2795;47.652;13.128;2023-12-07T01:27:47;27.60;;;10.87;;
5543;SDS011;2795;47.652;13.128;2023-12-07T01:30:14;38.40;;;12.33;;
5543;SDS011;2795;47.652;13.128;2023-12-07T01:32:41;33.90;;;12.00;;
5543;SDS011;2795;47.652;13.128;2023-12-07T01:35:08;32.27;;;12.67;;
5543;SDS011;2795;47.652;13.128;2023-12-07T01:37:34;32.93;;;12.40;;
5543;SDS011;2795;47.652;13.128;2023-12-07T01:40:01;39.60;;;12.37;;
5543;SDS011;2795;47.652;13.128;2023-12-07T01:42:32;43.90;;;13.17;;
5543;SDS011;2795;47.652;13.128;2023-12-07T01:44:58;46.37;;;13.87;;
5543;SDS011;2795;47.652;13.128;2023-12-07T01:47:25;35.53;;;12.27;;
5543;SDS011;2795;47.652;13.128;2023-12-07T01:49:52;31.07;;;11.87;;
5543;SDS011;2795;47.652;13.128;2023-12-07T01:52:20;40.07;;;12.97;;
5543;SDS011;2795;47.652;13.128;2023-12-07T01:54:49;37.60;;;12.80;;
5543;SDS011;2795;47.652;13.128;2023-12-07T01:57:15;41.33;;;14.00;;
5543;SDS011;2795;47.652;13.128;2023-12-07T01:59:42;40.33;;;13.87;;
5543;SDS011;2795;47.652;13.128;2023-12-07T02:02:09;34.73;;;11.97;;
5543;SDS011;2795;47.652;13.128;2023-12-07T02:04:36;35.97;;;12.70;;
5543;SDS011;2795;47.652;13.128;2023-12-07T02:07:03;33.60;;;12.20;;
5543;SDS011;2795;47.652;13.128;2023-12-07T02:09:30;37.60;;;12.30;;
5543;SDS011;2795;47.652;13.128;2023-12-07T02:11:58;40.60;;;11.90;;
5543;SDS011;2795;47.652;13.128;2023-12-07T02:14:26;31.80;;;10.70;;
5543;SDS011;2795;47.652;13.128;2023-12-07T02:16:59;27.23;;;10.17;;
5543;SDS011;2795;47.652;13.128;2023-12-07T02:22:49;26.10;;;9.47;;
5543;SDS011;2795;47.652;13.128;2023-12-07T02:25:19;33.37;;;10.57;;
5543;SDS011;2795;47.652;13.128;2023-12-07T02:27:50;28.43;;;11.00;;
5543;SDS011;2795;47.652;13.128;2023-12-07T02:30:17;36.77;;;11.23;;
5543;SDS011;2795;47.652;13.128;2023-12-07T02:32:44;35.90;;;11.53;;
5543;SDS011;2795;47.652;13.128;2023-12-07T02:35:12;30.43;;;9.60;;
5543;SDS011;2795;47.652;13.128;2023-12-07T02:37:43;35.00;;;11.27;;
5543;SDS011;2795;47.652;13.128;2023-12-07T02:40:11;29.20;;;9.27;;
5543;SDS011;2795;47.652;13.128;2023-12-07T02:42:41;35.53;;;10.03;;
5543;SDS011;2795;47.652;13.128;2023-12-07T02:45:10;28.17;;;8.37;;
5543;SDS011;2795;47.652;13.128;2023-12-07T02:47:38;29.37;;;8.93;;
5543;SDS011;2795;47.652;13.128;2023-12-07T02:50:05;24.33;;;8.13;;
5543;SDS011;2795;47.652;13.128;2023-12-07T02:52:33;24.43;;;8.83;;
5543;SDS011;2795;47.652;13.128;2023-12-07T02:55:01;40.03;;;10.40;;
5543;SDS011;2795;47.652;13.128;2023-12-07T02:57:29;26.53;;;9.13;;
5543;SDS011;2795;47.652;13.128;2023-12-07T02:59:56;31.53;;;9.10;;
5543;SDS011;2795;47.652;13.128;2023-12-07T03:02:22;29.80;;;9.20;;
5543;SDS011;2795;47.652;13.128;2023-12-07T03:04:50;33.53;;;10.17;;
5543;SDS011;2795;47.652;13.128;2023-12-07T03:07:16;29.77;;;11.03;;
5543;SDS011;2795;47.652;13.128;2023-12-07T03:09:43;34.87;;;10.63;;
5543;SDS011;2795;47.652;13.128;2023-12-07T03:12:10;31.80;;;10.50;;
5543;SDS011;2795;47.652;13.128;2023-12-07T03:14:36;28.77;;;9.23;;
5543;SDS011;2795;47.652;13.128;2023-12-07T03:17:03;30.67;;;10.30;;
5543;SDS011;2795;47.652;13.128;2023-12-07T03:19:30;23.37;;;8.70;;
5543;SDS011;2795;47.652;13.128;2023-12-07T03:21:57;28.50;;;9.87;;
5543;SDS011;2795;47.652;13.128;2023-12-07T03:24:24;31.90;;;9.73;;
5543;SDS011;2795;47.652;13.128;2023-12-07T03:26:50;19.00;;;7.63;;
5543;SDS011;2795;47.652;13.128;2023-12-07T03:29:17;26.20;;;8.50;;
5543;SDS011;2795;47.652;13.128;2023-12-07T03:31:44;37.23;;;10.80;;
5543;SDS011;2795;47.652;13.128;2023-12-07T03:34:10;31.40;;;8.73;;
5543;SDS011;2795;47.652;13.128;2023-12-07T03:36:39;23.33;;;8.20;;
5543;SDS011;2795;47.652;13.128;2023-12-07T03:39:05;22.87;;;8.33;;
5543;SDS011;2795;47.652;13.128;2023-12-07T03:41:32;32.37;;;8.90;;
5543;SDS011;2795;47.652;13.128;2023-12-07T03:43:59;22.27;;;8.10;;
5543;SDS011;2795;47.652;13.128;2023-12-07T03:46:25;26.80;;;8.47;;
5543;SDS011;2795;47.652;13.128;2023-12-07T03:48:52;30.23;;;9.80;;
5543;SDS011;2795;47.652;13.128;2023-12-07T03:51:18;35.37;;;10.70;;
5543;SDS011;2795;47.652;13.128;2023-12-07T03:53:45;28.33;;;10.90;;
5543;SDS011;2795;47.652;13.128;2023-12-07T03:56:22;44.17;;;11.50;;
5543;SDS011;2795;47.652;13.128;2023-12-07T03:58:49;33.13;;;10.07;;
5543;SDS011;2795;47.652;13.128;2023-12-07T04:01:16;25.60;;;9.50;;
5543;SDS011;2795;47.652;13.128;2023-12-07T04:03:42;39.30;;;11.33;;
5543;SDS011;2795;47.652;13.128;2023-12-07T04:06:09;36.77;;;11.00;;
5543;SDS011;2795;47.652;13.128;2023-12-07T04:08:36;29.73;;;9.97;;
5543;SDS011;2795;47.652;13.128;2023-12-07T04:11:02;23.90;;;8.73;;
5543;SDS011;2795;47.652;13.128;2023-12-07T04:13:29;31.80;;;10.47;;
5543;SDS011;2795;47.652;13.128;2023-12-07T04:15:56;29.50;;;9.13;;
5543;SDS011;2795;47.652;13.128;2023-12-07T04:18:23;34.83;;;10.37;;
5543;SDS011;2795;47.652;13.128;2023-12-07T04:20:49;26.03;;;10.00;;
5543;SDS011;2795;47.652;13.128;2023-12-07T04:23:16;27.70;;;9.40;;
5543;SDS011;2795;47.652;13.128;2023-12-07T04:25:43;34.37;;;11.00;;
5543;SDS011;2795;47.652;13.128;2023-12-07T04:28:09;29.90;;;10.40;;
5543;SDS011;2795;47.652;13.128;2023-12-07T04:30:36;27.53;;;9.73;;
5543;SDS011;2795;47.652;13.128;2023-12-07T04:33:03;37.73;;;11.70;;
5543;SDS011;2795;47.652;13.128;2023-12-07T04:35:30;27.53;;;9.60;;
5543;SDS011;2795;47.652;13.128;2023-12-07T04:37:57;31.97;;;11.33;;
5543;SDS011;2795;47.652;13.128;2023-12-07T04:40:24;37.50;;;11.33;;
5543;SDS011;2795;47.652;13.128;2023-12-07T04:42:51;41.17;;;12.77;;
5543;SDS011;2795;47.652;13.128;2023-12-07T04:45:18;39.70;;;13.10;;
5543;SDS011;2795;47.652;13.128;2023-12-07T04:47:45;27.90;;;10.90;;
5543;SDS011;2795;47.652;13.128;2023-12-07T04:50:12;49.57;;;13.80;;
5543;SDS011;2795;47.652;13.128;2023-12-07T04:52:39;45.00;;;14.00;;
5543;SDS011;2795;47.652;13.128;2023-12-07T04:55:06;34.30;;;11.43;;
5543;SDS011;2795;47.652;13.128;2023-12-07T04:57:33;30.60;;;10.37;;
5543;SDS011;2795;47.652;13.128;2023-12-07T05:00:01;38.87;;;12.53;;
5543;SDS011;2795;47.652;13.128;2023-12-07T05:02:32;28.77;;;10.40;;
5543;SDS011;2795;47.652;13.128;2023-12-07T05:04:59;42.60;;;11.80;;
5543;SDS011;2795;47.652;13.128;2023-12-07T05:07:25;34.00;;;11.97;;
5543;SDS011;2795;47.652;13.128;2023-12-07T05:09:52;43.57;;;12.60;;
5543;SDS011;2795;47.652;13.128;2023-12-07T05:12:19;39.30;;;13.20;;
5543;SDS011;2795;47.652;13.128;2023-12-07T05:14:46;31.63;;;11.37;;
5543;SDS011;2795;47.652;13.128;2023-12-07T05:17:13;37.90;;;12.73;;
5543;SDS011;2795;47.652;13.128;2023-12-07T05:19:40;46.13;;;14.00;;
5543;SDS011;2795;47.652;13.128;2023-12-07T05:22:07;33.80;;;12.63;;
5543;SDS011;2795;47.652;13.128;2023-12-07T05:24:34;41.03;;;14.73;;
5543;SDS011;2795;47.652;13.128;2023-12-07T05:27:01;40.33;;;13.13;;
5543;SDS011;2795;47.652;13.128;2023-12-07T05:29:28;37.03;;;13.40;;
5543;SDS011;2795;47.652;13.128;2023-12-07T05:31:54;39.20;;;13.10;;
5543;SDS011;2795;47.652;13.128;2023-12-07T05:34:21;51.70;;;21.87;;
5543;SDS011;2795;47.652;13.128;2023-12-07T05:36:48;41.70;;;17.20;;
5543;SDS011;2795;47.652;13.128;2023-12-07T05:39:15;48.80;;;17.60;;
5543;SDS011;2795;47.652;13.128;2023-12-07T05:41:44;44.97;;;14.60;;
5543;SDS011;2795;47.652;13.128;2023-12-07T05:44:13;44.67;;;16.23;;
5543;SDS011;2795;47.652;13.128;2023-12-07T05:46:40;49.30;;;16.00;;
5543;SDS011;2795;47.652;13.128;2023-12-07T05:49:10;37.20;;;13.70;;
5543;SDS011;2795;47.652;13.128;2023-12-07T05:51:37;41.67;;;14.83;;
5543;SDS011;2795;47.652;13.128;2023-12-07T05:54:04;50.33;;;14.93;;
5543;SDS011;2795;47.652;13.128;2023-12-07T05:56:32;39.60;;;14.07;;
5543;SDS011;2795;47.652;13.128;2023-12-07T05:58:58;43.53;;;13.87;;
5543;SDS011;2795;47.652;13.128;2023-12-07T06:01:25;42.37;;;13.17;;
5543;SDS011;2795;47.652;13.128;2023-12-07T06:03:52;49.07;;;13.87;;
5543;SDS011;2795;47.652;13.128;2023-12-07T06:06:18;38.37;;;12.97;;
5543;SDS011;2795;47.652;13.128;2023-12-07T06:08:47;34.80;;;11.73;;
5543;SDS011;2795;47.652;13.128;2023-12-07T06:11:14;31.77;;;11.63;;
5543;SDS011;2795;47.652;13.128;2023-12-07T06:13:41;41.77;;;12.63;;
5543;SDS011;2795;47.652;13.128;2023-12-07T06:16:11;32.67;;;11.80;;
5543;SDS011;2795;47.652;13.128;2023-12-07T06:18:38;40.27;;;13.70;;
5543;SDS011;2795;47.652;13.128;2023-12-07T06:21:05;45.17;;;14.90;;
5543;SDS011;2795;47.652;13.128;2023-12-07T06:23:32;45.63;;;14.57;;
5543;SDS011;2795;47.652;13.128;2023-12-07T06:26:00;40.67;;;13.10;;
5543;SDS011;2795;47.652;13.128;2023-12-07T06:28:28;37.43;;;12.97;;
5543;SDS011;2795;47.652;13.128;2023-12-07T06:30:55;41.03;;;13.47;;
5543;SDS011;2795;47.652;13.128;2023-12-07T06:33:23;37.00;;;12.90;;
5543;SDS011;2795;47.652;13.128;2023-12-07T06:35:50;38.53;;;13.23;;
5543;SDS011;2795;47.652;13.128;2023-12-07T06:38:17;33.10;;;12.90;;
5543;SDS011;2795;47.652;13.128;2023-12-07T06:40:48;37.17;;;14.07;;
5543;SDS011;2795;47.652;13.128;2023-12-07T06:43:14;37.43;;;13.70;;
5543;SDS011;2795;47.652;13.128;2023-12-07T06:45:41;53.43;;;15.47;;
5543;SDS011;2795;47.652;13.128;2023-12-07T06:48:08;35.20;;;14.20;;
5543;SDS011;2795;47.652;13.128;2023-12-07T06:50:35;49.27;;;15.83;;
5543;SDS011;2795;47.652;13.128;2023-12-07T06:53:02;48.03;;;15.57;;
5543;SDS011;2795;47.652;13.128;2023-12-07T06:55:28;46.77;;;14.60;;
5543;SDS011;2795;47.652;13.128;2023-12-07T06:57:55;48.77;;;14.93;;
5543;SDS011;2795;47.652;13.128;2023-12-07T07:00:22;45.17;;;14.57;;
5543;SDS011;2795;47.652;13.128;2023-12-07T07:02:51;33.40;;;13.33;;
5543;SDS011;2795;47.652;13.128;2023-12-07T07:05:17;35.77;;;14.17;;
5543;SDS011;2795;47.652;13.128;2023-12-07T07:07:44;49.83;;;16.17;;
5543;SDS011;2795;47.652;13.128;2023-12-07T07:10:11;48.67;;;15.43;;
5543;SDS011;2795;47.652;13.128;2023-12-07T07:12:39;46.97;;;15.10;;
5543;SDS011;2795;47.652;13.128;2023-12-07T07:15:06;47.20;;;14.80;;
5543;SDS011;2795;47.652;13.128;2023-12-07T07:17:34;50.00;;;18.93;;
5543;SDS011;2795;47.652;13.128;2023-12-07T07:20:01;54.43;;;18.43;;
5543;SDS011;2795;47.652;13.128;2023-12-07T07:22:28;43.37;;;15.20;;
5543;SDS011;2795;47.652;13.128;2023-12-07T07:24:54;40.77;;;14.90;;
5543;SDS011;2795;47.652;13.128;2023-12-07T07:27:21;44.00;;;15.00;;
5543;SDS011;2795;47.652;13.128;2023-12-07T07:29:48;36.40;;;13.93;;
5543;SDS011;2795;47.652;13.128;2023-12-07T07:32:15;47.60;;;14.50;;
5543;SDS011;2795;47.652;13.128;2023-12-07T07:34:42;42.70;;;13.70;;
5543;SDS011;2795;47.652;13.128;2023-12-07T07:37:09;42.07;;;14.43;;
5543;SDS011;2795;47.652;13.128;2023-12-07T07:39:36;39.20;;;14.00;;
5543;SDS011;2795;47.652;13.128;2023-12-07T07:42:03;41.93;;;13.00;;
5543;SDS011;2795;47.652;13.128;2023-12-07T07:44:31;32.17;;;12.07;;
5543;SDS011;2795;47.652;13.128;2023-12-07T07:46:57;40.80;;;14.60;;
5543;SDS011;2795;47.652;13.128;2023-12-07T07:49:24;45.70;;;16.63;;
5543;SDS011;2795;47.652;13.128;2023-12-07T07:51:51;44.40;;;15.57;;
5543;SDS011;2795;47.652;13.128;2023-12-07T07:54:17;47.47;;;15.60;;
5543;SDS011;2795;47.652;13.128;2023-12-07T07:56:44;42.23;;;14.90;;
5543;SDS011;2795;47.652;13.128;2023-12-07T07:59:11;33.80;;;13.50;;
5543;SDS011;2795;47.652;13.128;2023-12-07T08:01:37;44.23;;;14.97;;
5543;SDS011;2795;47.652;13.128;2023-12-07T08:04:04;46.63;;;15.40;;
5543;SDS011;2795;47.652;13.128;2023-12-07T08:06:31;41.17;;;14.33;;
5543;SDS011;2795;47.652;13.128;2023-12-07T08:09:02;43.63;;;13.63;;
5543;SDS011;2795;47.652;13.128;2023-12-07T08:11:29;39.90;;;15.53;;
5543;SDS011;2795;47.652;13.128;2023-12-07T08:13:56;42.87;;;16.70;;
5543;SDS011;2795;47.652;13.128;2023-12-07T08:16:23;47.37;;;15.40;;
5543;SDS011;2795;47.652;13.128;2023-12-07T08:18:49;48.53;;;16.90;;
5543;SDS011;2795;47.652;13.128;2023-12-07T08:21:22;40.43;;;14.97;;
5543;SDS011;2795;47.652;13.128;2023-12-07T08:23:56;44.87;;;15.33;;
5543;SDS011;2795;47.652;13.128;2023-12-07T08:26:22;46.80;;;16.43;;
5543;SDS011;2795;47.652;13.128;2023-12-07T08:28:49;40.60;;;14.13;;
5543;SDS011;2795;47.652;13.128;2023-12-07T08:31:16;38.73;;;13.87;;
5543;SDS011;2795;47.652;13.128;2023-12-07T08:33:43;38.33;;;13.43;;
5543;SDS011;2795;47.652;13.128;2023-12-07T08:36:10;37.83;;;12.60;;
5543;SDS011;2795;47.652;13.128;2023-12-07T08:38:37;35.87;;;12.07;;
5543;SDS011;2795;47.652;13.128;2023-12-07T08:41:04;50.20;;;13.00;;
5543;SDS011;2795;47.652;13.128;2023-12-07T08:43:30;29.97;;;11.60;;
5543;SDS011;2795;47.652;13.128;2023-12-07T08:45:57;38.27;;;14.17;;
5543;SDS011;2795;47.652;13.128;2023-12-07T08:48:27;43.67;;;13.47;;
5543;SDS011;2795;47.652;13.128;2023-12-07T08:50:54;39.33;;;12.67;;
5543;SDS011;2795;47.652;13.128;2023-12-07T08:53:20;47.90;;;16.27;;
5543;SDS011;2795;47.652;13.128;2023-12-07T08:55:47;35.03;;;12.60;;
5543;SDS011;2795;47.652;13.128;2023-12-07T08:58:14;38.73;;;14.87;;
5543;SDS011;2795;47.652;13.128;2023-12-07T09:00:41;46.53;;;15.47;;
5543;SDS011;2795;47.652;13.128;2023-12-07T09:03:08;41.40;;;15.70;;
5543;SDS011;2795;47.652;13.128;2023-12-07T09:05:34;37.47;;;14.00;;
5543;SDS011;2795;47.652;13.128;2023-12-07T09:08:01;52.80;;;16.70;;
5543;SDS011;2795;47.652;13.128;2023-12-07T09:10:28;35.77;;;12.93;;
5543;SDS011;2795;47.652;13.128;2023-12-07T09:12:55;64.37;;;15.77;;
5543;SDS011;2795;47.652;13.128;2023-12-07T09:15:21;33.37;;;11.87;;
5543;SDS011;2795;47.652;13.128;2023-12-07T09:17:48;30.80;;;11.27;;
5543;SDS011;2795;47.652;13.128;2023-12-07T09:20:15;44.43;;;13.07;;
5543;SDS011;2795;47.652;13.128;2023-12-07T09:22:45;41.43;;;13.47;;
5543;SDS011;2795;47.652;13.128;2023-12-07T09:25:13;41.23;;;13.87;;
5543;SDS011;2795;47.652;13.128;2023-12-07T09:27:40;36.47;;;13.80;;
5543;SDS011;2795;47.652;13.128;2023-12-07T09:30:08;30.97;;;12.43;;
5543;SDS011;2795;47.652;13.128;2023-12-07T09:32:39;38.17;;;12.03;;
5543;SDS011;2795;47.652;13.128;2023-12-07T09:35:07;35.17;;;11.87;;
5543;SDS011;2795;47.652;13.128;2023-12-07T09:37:34;23.43;;;9.63;;
5543;SDS011;2795;47.652;13.128;2023-12-07T09:40:01;33.40;;;10.90;;
5543;SDS011;2795;47.652;13.128;2023-12-07T09:42:30;27.20;;;9.73;;
5543;SDS011;2795;47.652;13.128;2023-12-07T09:45:02;35.27;;;9.67;;
5543;SDS011;2795;47.652;13.128;2023-12-07T09:47:31;19.13;;;8.47;;
5543;SDS011;2795;47.652;13.128;2023-12-07T09:50:03;24.70;;;9.40;;
5543;SDS011;2795;47.652;13.128;2023-12-07T09:52:31;24.60;;;9.30;;
5543;SDS011;2795;47.652;13.128;2023-12-07T09:54:58;45.67;;;10.97;;
5543;SDS011;2795;47.652;13.128;2023-12-07T09:57:25;31.23;;;10.87;;
5543;SDS011;2795;47.652;13.128;2023-12-07T09:59:56;29.03;;;10.70;;
5543;SDS011;2795;47.652;13.128;2023-12-07T10:02:23;26.80;;;9.83;;
5543;SDS011;2795;47.652;13.128;2023-12-07T10:05:23;28.40;;;9.80;;
5543;SDS011;2795;47.652;13.128;2023-12-07T10:07:43;30.43;;;10.40;;
5543;SDS011;2795;47.652;13.128;2023-12-07T10:10:13;31.27;;;9.57;;
5543;SDS011;2795;47.652;13.128;2023-12-07T10:13:02;30.70;;;9.50;;
5543;SDS011;2795;47.652;13.128;2023-12-07T10:15:27;26.20;;;8.43;;
5543;SDS011;2795;47.652;13.128;2023-12-07T10:17:55;36.90;;;9.63;;
5543;SDS011;2795;47.652;13.128;2023-12-07T10:20:27;25.80;;;9.33;;
5543;SDS011;2795;47.652;13.128;2023-12-07T10:23:07;28.03;;;8.90;;
5543;SDS011;2795;47.652;13.128;2023-12-07T10:25:41;26.67;;;9.07;;
5543;SDS011;2795;47.652;13.128;2023-12-07T10:28:09;21.70;;;8.37;;
5543;SDS011;2795;47.652;13.128;2023-12-07T10:30:39;40.83;;;10.83;;
5543;SDS011;2795;47.652;13.128;2023-12-07T10:33:09;33.33;;;9.87;;
5543;SDS011;2795;47.652;13.128;2023-12-07T10:35:39;25.23;;;8.47;;
5543;SDS011;2795;47.652;13.128;2023-12-07T10:38:07;25.57;;;9.30;;
5543;SDS011;2795;47.652;13.128;2023-12-07T10:40:34;30.17;;;10.03;;
5543;SDS011;2795;47.652;13.128;2023-12-07T10:43:02;42.47;;;12.87;;
5543;SDS011;2795;47.652;13.128;2023-12-07T10:45:33;38.43;;;11.60;;
5543;SDS011;2795;47.652;13.128;2023-12-07T10:48:02;36.50;;;10.80;;
5543;SDS011;2795;47.652;13.128;2023-12-07T10:50:32;27.20;;;9.10;;
5543;SDS011;2795;47.652;13.128;2023-12-07T10:53:05;41.10;;;11.13;;
5543;SDS011;2795;47.652;13.128;2023-12-07T10:55:38;36.40;;;11.60;;
5543;SDS011;2795;47.652;13.128;2023-12-07T10:58:09;22.40;;;8.60;;
5543;SDS011;2795;47.652;13.128;2023-12-07T11:00:41;39.40;;;11.53;;
5543;SDS011;2795;47.652;13.128;2023-12-07T11:03:15;47.20;;;12.93;;
5543;SDS011;2795;47.652;13.128;2023-12-07T11:05:44;37.97;;;10.20;;
5543;SDS011;2795;47.652;13.128;2023-12-07T11:08:31;27.60;;;9.23;;
5543;SDS011;2795;47.652;13.128;2023-12-07T11:13:30;31.47;;;10.60;;
5543;SDS011;2795;47.652;13.128;2023-12-07T11:15:58;30.83;;;9.47;;
5543;SDS011;2795;47.652;13.128;2023-12-07T11:18:26;27.10;;;8.87;;
5543;SDS011;2795;47.652;13.128;2023-12-07T11:20:54;23.80;;;7.93;;
5543;SDS011;2795;47.652;13.128;2023-12-07T11:23:22;40.70;;;9.97;;
5543;SDS011;2795;47.652;13.128;2023-12-07T11:25:52;28.63;;;8.70;;
5543;SDS011;2795;47.652;13.128;2023-12-07T11:28:34;29.77;;;8.43;;
5543;SDS011;2795;47.652;13.128;2023-12-07T11:31:08;33.87;;;9.40;;
5543;SDS011;2795;47.652;13.128;2023-12-07T11:33:38;33.60;;;9.87;;
5543;SDS011;2795;47.652;13.128;2023-12-07T11:36:10;26.77;;;8.23;;
5543;SDS011;2795;47.652;13.128;2023-12-07T11:38:37;25.00;;;8.17;;
5543;SDS011;2795;47.652;13.128;2023-12-07T11:41:04;31.97;;;9.30;;
5543;SDS011;2795;47.652;13.128;2023-12-07T11:46:07;31.53;;;8.93;;
5543;SDS011;2795;47.652;13.128;2023-12-07T11:48:34;27.23;;;8.53;;
5543;SDS011;2795;47.652;13.128;2023-12-07T11:53:31;22.90;;;7.23;;
5543;SDS011;2795;47.652;13.128;2023-12-07T11:55:59;27.17;;;8.03;;
5543;SDS011;2795;47.652;13.128;2023-12-07T11:58:28;27.13;;;8.70;;
5543;SDS011;2795;47.652;13.128;2023-12-07T12:00:55;37.40;;;10.10;;
5543;SDS011;2795;47.652;13.128;2023-12-07T12:03:23;23.23;;;8.00;;
5543;SDS011;2795;47.652;13.128;2023-12-07T12:05:50;31.20;;;9.27;;
5543;SDS011;2795;47.652;13.128;2023-12-07T12:08:18;29.00;;;8.23;;
5543;SDS011;2795;47.652;13.128;2023-12-07T12:10:45;33.30;;;10.23;;
5543;SDS011;2795;47.652;13.128;2023-12-07T12:13:12;35.90;;;12.23;;
5543;SDS011;2795;47.652;13.128;2023-12-07T12:15:39;35.90;;;10.93;;
5543;SDS011;2795;47.652;13.128;2023-12-07T12:18:06;37.93;;;11.90;;
5543;SDS011;2795;47.652;13.128;2023-12-07T12:20:33;30.83;;;9.47;;
5543;SDS011;2795;47.652;13.128;2023-12-07T12:23:01;40.13;;;11.43;;
5543;SDS011;2795;47.652;13.128;2023-12-07T12:25:30;29.13;;;9.93;;
5543;SDS011;2795;47.652;13.128;2023-12-07T12:27:58;30.13;;;10.30;;
5543;SDS011;2795;47.652;13.128;2023-12-07T12:30:30;39.83;;;11.20;;
5543;SDS011;2795;47.652;13.128;2023-12-07T12:32:57;28.27;;;9.53;;
5543;SDS011;2795;47.652;13.128;2023-12-07T12:35:26;22.53;;;8.50;;
5543;SDS011;2795;47.652;13.128;2023-12-07T12:37:53;28.53;;;8.60;;
5543;SDS011;2795;47.652;13.128;2023-12-07T12:40:22;31.13;;;8.80;;
5543;SDS011;2795;47.652;13.128;2023-12-07T12:42:49;26.43;;;8.00;;
5543;SDS011;2795;47.652;13.128;2023-12-07T12:45:21;34.07;;;9.00;;
5543;SDS011;2795;47.652;13.128;2023-12-07T12:47:48;23.33;;;8.53;;
5543;SDS011;2795;47.652;13.128;2023-12-07T12:53:04;36.00;;;8.93;;
5543;SDS011;2795;47.652;13.128;2023-12-07T12:55:33;21.70;;;7.33;;
5543;SDS011;2795;47.652;13.128;2023-12-07T12:58:01;43.57;;;9.00;;
5543;SDS011;2795;47.652;13.128;2023-12-07T13:00:31;21.63;;;8.07;;
5543;SDS011;2795;47.652;13.128;2023-12-07T13:03:00;22.53;;;7.00;;
5543;SDS011;2795;47.652;13.128;2023-12-07T13:05:29;24.40;;;7.00;;
5543;SDS011;2795;47.652;13.128;2023-12-07T13:07:56;27.00;;;7.17;;
5543;SDS011;2795;47.652;13.128;2023-12-07T13:10:39;27.87;;;7.57;;
5543;SDS011;2795;47.652;13.128;2023-12-07T13:13:07;22.20;;;7.10;;
5543;SDS011;2795;47.652;13.128;2023-12-07T13:15:34;22.23;;;6.93;;
5543;SDS011;2795;47.652;13.128;2023-12-07T13:18:00;25.33;;;6.67;;
5543;SDS011;2795;47.652;13.128;2023-12-07T13:20:31;21.43;;;6.13;;
5543;SDS011;2795;47.652;13.128;2023-12-07T13:23:15;34.20;;;7.97;;
5543;SDS011;2795;47.652;13.128;2023-12-07T13:25:42;31.43;;;7.03;;
5543;SDS011;2795;47.652;13.128;2023-12-07T13:28:08;19.20;;;6.70;;
5543;SDS011;2795;47.652;13.128;2023-12-07T13:30:35;38.43;;;8.50;;
5543;SDS011;2795;47.652;13.128;2023-12-07T13:33:02;28.23;;;7.20;;
5543;SDS011;2795;47.652;13.128;2023-12-07T13:35:47;23.50;;;6.37;;
5543;SDS011;2795;47.652;13.128;2023-12-07T13:38:14;20.43;;;6.17;;
5543;SDS011;2795;47.652;13.128;2023-12-07T13:40:41;21.27;;;6.47;;
5543;SDS011;2795;47.652;13.128;2023-12-07T13:43:08;24.73;;;7.10;;
5543;SDS011;2795;47.652;13.128;2023-12-07T13:45:35;59.27;;;14.83;;
5543;SDS011;2795;47.652;13.128;2023-12-07T13:48:02;76.57;;;21.83;;
5543;SDS011;2795;47.652;13.128;2023-12-07T13:50:29;44.37;;;15.93;;
5543;SDS011;2795;47.652;13.128;2023-12-07T13:52:56;29.83;;;10.97;;
5543;SDS011;2795;47.652;13.128;2023-12-07T13:55:22;27.03;;;7.93;;
5543;SDS011;2795;47.652;13.128;2023-12-07T13:57:50;21.63;;;6.60;;
5543;SDS011;2795;47.652;13.128;2023-12-07T14:00:19;21.80;;;6.53;;
5543;SDS011;2795;47.652;13.128;2023-12-07T14:02:46;22.13;;;6.27;;
5543;SDS011;2795;47.652;13.128;2023-12-07T14:05:13;22.23;;;5.70;;
5543;SDS011;2795;47.652;13.128;2023-12-07T14:07:40;23.30;;;5.87;;
5543;SDS011;2795;47.652;13.128;2023-12-07T14:10:06;26.33;;;6.97;;
5543;SDS011;2795;47.652;13.128;2023-12-07T14:12:34;35.70;;;8.30;;
5543;SDS011;2795;47.652;13.128;2023-12-07T14:15:00;36.67;;;8.57;;
5543;SDS011;2795;47.652;13.128;2023-12-07T14:17:27;34.37;;;8.10;;
5543;SDS011;2795;47.652;13.128;2023-12-07T14:20:09;35.77;;;8.13;;
5543;SDS011;2795;47.652;13.128;2023-12-07T14:22:56;19.20;;;6.07;;
5543;SDS011;2795;47.652;13.128;2023-12-07T14:25:24;31.10;;;7.10;;
5543;SDS011;2795;47.652;13.128;2023-12-07T14:27:51;23.20;;;5.90;;
5543;SDS011;2795;47.652;13.128;2023-12-07T14:30:17;21.83;;;6.30;;
5543;SDS011;2795;47.652;13.128;2023-12-07T14:32:44;33.73;;;7.47;;
5543;SDS011;2795;47.652;13.128;2023-12-07T14:35:19;36.90;;;8.50;;
5543;SDS011;2795;47.652;13.128;2023-12-07T14:37:46;33.00;;;8.10;;
5543;SDS011;2795;47.652;13.128;2023-12-07T14:40:14;35.43;;;10.20;;
5543;SDS011;2795;47.652;13.128;2023-12-07T14:42:43;35.10;;;9.90;;
5543;SDS011;2795;47.652;13.128;2023-12-07T14:45:12;39.90;;;10.30;;
5543;SDS011;2795;47.652;13.128;2023-12-07T14:47:40;27.27;;;8.33;;
5543;SDS011;2795;47.652;13.128;2023-12-07T14:50:07;26.03;;;7.27;;
5543;SDS011;2795;47.652;13.128;2023-12-07T14:52:33;23.17;;;6.53;;
5543;SDS011;2795;47.652;13.128;2023-12-07T14:55:00;28.47;;;7.43;;
5543;SDS011;2795;47.652;13.128;2023-12-07T14:57:30;24.70;;;6.47;;